sim
Sign-in with your pilot id or email,
or register
Callsign
Passwort

Schedule Details

Flight Number: OEO4783
Departure: Mahon Menorca Airport (LEMH) at 17:10
Arrival: Munich Airport (EDDM) at 19:10

Weather Information
Getting current METAR information for LEMH 211200Z 20007KT 160V260 9999 FEW020 FEW025CB 27/17 Q1016
Getting current METAR information for EDDM 211150Z 04004KT 330V110 CAVOK 22/13 Q1016 NOSIG

Schedule Frequency

Route Map